createdAt,value
2022-09-30T00:00:00.000Z,15.53
2022-09-30T00:15:00.000Z,15.27
2022-09-30T00:30:00.000Z,15.01
2022-09-30T00:45:00.000Z,15.81
2022-09-30T01:00:00.000Z,15.25
2022-09-30T01:15:00.000Z,16.36
2022-09-30T01:30:00.000Z,17.38
2022-09-30T01:45:00.000Z,17.86
2022-09-30T02:00:00.000Z,18.04
2022-09-30T02:15:00.000Z,18.21
2022-09-30T02:30:00.000Z,18.98
2022-09-30T02:45:00.000Z,22.13
2022-09-30T03:00:00.000Z,22.14
2022-09-30T03:15:00.000Z,24.4
2022-09-30T03:30:00.000Z,26.78
2022-09-30T03:45:00.000Z,28.12
2022-09-30T04:00:00.000Z,27.14
2022-09-30T04:15:00.000Z,23.69
2022-09-30T04:30:00.000Z,21.38
2022-09-30T04:45:00.000Z,21.51
2022-09-30T05:00:00.000Z,24.87
2022-09-30T05:15:00.000Z,26.49
2022-09-30T05:30:00.000Z,24.69
2022-09-30T05:45:00.000Z,24.15
2022-09-30T06:00:00.000Z,22.04
2022-09-30T06:15:00.000Z,21.64
2022-09-30T06:30:00.000Z,24.69
2022-09-30T06:45:00.000Z,29.4
2022-09-30T07:00:00.000Z,27.41
2022-09-30T07:15:00.000Z,22.13
2022-09-30T07:30:00.000Z,19.54
2022-09-30T07:45:00.000Z,16.69
2022-09-30T08:00:00.000Z,14.46
2022-09-30T08:15:00.000Z,14.41
2022-09-30T08:30:00.000Z,13.59
2022-09-30T08:45:00.000Z,10.64
2022-09-30T09:00:00.000Z,8.91
2022-09-30T09:15:00.000Z,8.52
2022-09-30T09:30:00.000Z,7.81
2022-09-30T09:45:00.000Z,7.64
2022-09-30T10:00:00.000Z,7.32
2022-09-30T10:15:00.000Z,7.75
2022-09-30T10:30:00.000Z,8.13
2022-09-30T10:45:00.000Z,7.06
2022-09-30T11:00:00.000Z,7.24
2022-09-30T11:15:00.000Z,7.11
2022-09-30T11:30:00.000Z,6.84
2022-09-30T11:45:00.000Z,7.34
2022-09-30T12:00:00.000Z,7.29
2022-09-30T12:15:00.000Z,7.38
2022-09-30T12:30:00.000Z,6.02
2022-09-30T12:45:00.000Z,9.08
2022-09-30T13:00:00.000Z,8.59
2022-09-30T13:15:00.000Z,8.05
2022-09-30T13:30:00.000Z,7.4
2022-09-30T13:45:00.000Z,7.47
2022-09-30T14:00:00.000Z,8.99
2022-09-30T14:15:00.000Z,7.51
2022-09-30T14:30:00.000Z,7.39
2022-09-30T14:45:00.000Z,9.86
2022-09-30T15:00:00.000Z,11.56
2022-09-30T15:15:00.000Z,7.94
2022-09-30T15:30:00.000Z,8.14
2022-09-30T15:45:00.000Z,8.98
2022-09-30T16:00:00.000Z,10.91
2022-09-30T16:15:00.000Z,13.51
2022-09-30T16:30:00.000Z,14.6
2022-09-30T16:45:00.000Z,10.92
2022-09-30T17:00:00.000Z,13.72
2022-09-30T17:15:00.000Z,18.15
2022-09-30T17:30:00.000Z,18.89
2022-09-30T17:45:00.000Z,16.66
2022-09-30T18:00:00.000Z,13.66
2022-09-30T18:15:00.000Z,13.89
2022-09-30T18:30:00.000Z,18.11
2022-09-30T18:45:00.000Z,24.06
2022-09-30T19:00:00.000Z,24.52
2022-09-30T19:15:00.000Z,27.13
2022-09-30T19:30:00.000Z,29.26
2022-09-30T19:45:00.000Z,28.14
2022-09-30T20:00:00.000Z,27.99
2022-09-30T20:15:00.000Z,31.59
2022-09-30T20:30:00.000Z,36.16
2022-09-30T20:45:00.000Z,33.21
2022-09-30T21:00:00.000Z,30.24
2022-09-30T21:15:00.000Z,28.51
2022-09-30T21:30:00.000Z,26.22
2022-09-30T21:45:00.000Z,27.28
2022-09-30T22:00:00.000Z,28.12
2022-09-30T22:15:00.000Z,26.2
2022-09-30T22:30:00.000Z,27.82
2022-09-30T22:45:00.000Z,26.06
2022-09-30T23:00:00.000Z,24.67
2022-09-30T23:15:00.000Z,23.58
2022-09-30T23:30:00.000Z,21.14
2022-09-30T23:45:00.000Z,21.82
